sensor_id;sensor_type;location;lat;lon;timestamp;pressure;altitude;pressure_sealevel;temperature;humidity
71917;BME280;59793;46.506;6.674;2023-08-07T00:01:29;97571.81;;;13.80;78.40
71917;BME280;59793;46.506;6.674;2023-08-07T00:03:54;97501.28;;;13.17;76.00
71917;BME280;59793;46.506;6.674;2023-08-07T00:06:20;97562.03;;;13.45;76.24
71917;BME280;59793;46.506;6.674;2023-08-07T00:08:45;97532.66;;;12.99;78.32
71917;BME280;59793;46.506;6.674;2023-08-07T00:11:10;97483.00;;;12.92;78.45
71917;BME280;59793;46.506;6.674;2023-08-07T00:13:36;97515.47;;;13.25;79.30
71917;BME280;59793;46.506;6.674;2023-08-07T00:16:02;97525.09;;;13.33;77.63
71917;BME280;59793;46.506;6.674;2023-08-07T00:18:28;97521.84;;;13.39;78.17
71917;BME280;59793;46.506;6.674;2023-08-07T00:20:54;97524.81;;;13.38;78.01
71917;BME280;59793;46.506;6.674;2023-08-07T00:23:19;97458.81;;;13.10;77.92
71917;BME280;59793;46.506;6.674;2023-08-07T00:25:44;97487.56;;;13.47;78.67
71917;BME280;59793;46.506;6.674;2023-08-07T00:28:10;97470.28;;;13.33;79.00
71917;BME280;59793;46.506;6.674;2023-08-07T00:30:35;97447.28;;;13.18;79.17
71917;BME280;59793;46.506;6.674;2023-08-07T00:33:00;97457.97;;;13.06;79.57
71917;BME280;59793;46.506;6.674;2023-08-07T00:35:26;97448.19;;;12.55;81.96
71917;BME280;59793;46.506;6.674;2023-08-07T00:37:51;97463.97;;;12.52;83.18
71917;BME280;59793;46.506;6.674;2023-08-07T00:40:17;97515.81;;;12.72;83.60
71917;BME280;59793;46.506;6.674;2023-08-07T00:42:42;97500.88;;;12.80;83.04
71917;BME280;59793;46.506;6.674;2023-08-07T00:45:08;97525.63;;;13.07;82.75
71917;BME280;59793;46.506;6.674;2023-08-07T00:47:34;97529.13;;;13.27;82.18
71917;BME280;59793;46.506;6.674;2023-08-07T00:50:02;97493.34;;;13.17;81.45
71917;BME280;59793;46.506;6.674;2023-08-07T00:52:28;97509.06;;;13.10;81.97
71917;BME280;59793;46.506;6.674;2023-08-07T00:54:54;97512.44;;;12.91;83.11
71917;BME280;59793;46.506;6.674;2023-08-07T00:57:19;97512.44;;;12.91;82.90
71917;BME280;59793;46.506;6.674;2023-08-07T00:59:48;97488.06;;;12.82;82.59
71917;BME280;59793;46.506;6.674;2023-08-07T01:02:14;97521.91;;;13.08;82.71
71917;BME280;59793;46.506;6.674;2023-08-07T01:04:40;97521.03;;;13.04;83.13
71917;BME280;59793;46.506;6.674;2023-08-07T01:07:05;97486.44;;;12.77;83.24
71917;BME280;59793;46.506;6.674;2023-08-07T01:09:31;97493.03;;;12.83;83.44
71917;BME280;59793;46.506;6.674;2023-08-07T01:12:10;97528.63;;;13.05;83.67
71917;BME280;59793;46.506;6.674;2023-08-07T01:17:15;97515.34;;;13.02;82.98
71917;BME280;59793;46.506;6.674;2023-08-07T01:19:41;97521.38;;;13.18;82.97
71917;BME280;59793;46.506;6.674;2023-08-07T01:24:34;97545.53;;;13.52;78.60
71917;BME280;59793;46.506;6.674;2023-08-07T01:35:20;97506.78;;;13.63;77.04
71917;BME280;59793;46.506;6.674;2023-08-07T01:37:48;97524.00;;;13.73;76.98
71917;BME280;59793;46.506;6.674;2023-08-07T01:40:16;97511.81;;;13.68;77.16
71917;BME280;59793;46.506;6.674;2023-08-07T01:42:42;97540.72;;;13.77;77.96
71917;BME280;59793;46.506;6.674;2023-08-07T01:45:09;97497.81;;;13.29;79.77
71917;BME280;59793;46.506;6.674;2023-08-07T01:47:34;97504.38;;;13.19;80.16
71917;BME280;59793;46.506;6.674;2023-08-07T01:50:00;97502.66;;;13.27;80.31
71917;BME280;59793;46.506;6.674;2023-08-07T01:52:25;97546.28;;;13.52;80.53
71917;BME280;59793;46.506;6.674;2023-08-07T01:54:50;97511.50;;;13.34;80.33
71917;BME280;59793;46.506;6.674;2023-08-07T01:57:16;97500.22;;;13.37;78.39
71917;BME280;59793;46.506;6.674;2023-08-07T01:59:41;97486.31;;;13.41;76.57
71917;BME280;59793;46.506;6.674;2023-08-07T02:02:07;97474.28;;;13.43;76.36
71917;BME280;59793;46.506;6.674;2023-08-07T02:04:32;97468.78;;;13.16;78.10
71917;BME280;59793;46.506;6.674;2023-08-07T02:06:58;97487.16;;;13.25;79.14
71917;BME280;59793;46.506;6.674;2023-08-07T02:09:23;97491.00;;;13.12;76.82
71917;BME280;59793;46.506;6.674;2023-08-07T02:11:48;97491.16;;;13.19;78.42
71917;BME280;59793;46.506;6.674;2023-08-07T02:14:13;97503.06;;;12.94;80.74
71917;BME280;59793;46.506;6.674;2023-08-07T02:16:39;97490.66;;;12.62;82.42
71917;BME280;59793;46.506;6.674;2023-08-07T02:19:04;97471.66;;;12.25;83.53
71917;BME280;59793;46.506;6.674;2023-08-07T02:21:29;97488.78;;;12.31;83.96
71917;BME280;59793;46.506;6.674;2023-08-07T02:23:55;97496.44;;;12.36;84.07
71917;BME280;59793;46.506;6.674;2023-08-07T02:26:20;97511.97;;;12.38;83.76
71917;BME280;59793;46.506;6.674;2023-08-07T02:28:45;97473.00;;;12.03;83.86
71917;BME280;59793;46.506;6.674;2023-08-07T02:31:11;97495.84;;;12.27;83.81
71917;BME280;59793;46.506;6.674;2023-08-07T02:33:36;97505.25;;;12.40;83.08
71917;BME280;59793;46.506;6.674;2023-08-07T02:36:01;97532.59;;;12.80;81.55
71917;BME280;59793;46.506;6.674;2023-08-07T02:38:27;97547.59;;;12.91;80.73
71917;BME280;59793;46.506;6.674;2023-08-07T02:40:52;97553.56;;;13.04;79.34
71917;BME280;59793;46.506;6.674;2023-08-07T02:43:17;97564.09;;;13.20;78.39
71917;BME280;59793;46.506;6.674;2023-08-07T02:45:43;97543.75;;;13.05;76.37
71917;BME280;59793;46.506;6.674;2023-08-07T02:48:08;97514.19;;;12.83;76.50
71917;BME280;59793;46.506;6.674;2023-08-07T02:50:33;97527.56;;;12.90;77.32
71917;BME280;59793;46.506;6.674;2023-08-07T02:53:00;97532.69;;;12.83;77.25
71917;BME280;59793;46.506;6.674;2023-08-07T02:55:25;97524.84;;;12.71;77.25
71917;BME280;59793;46.506;6.674;2023-08-07T02:57:51;97531.84;;;12.79;77.50
71917;BME280;59793;46.506;6.674;2023-08-07T03:00:16;97534.72;;;12.74;77.25
71917;BME280;59793;46.506;6.674;2023-08-07T03:02:41;97544.50;;;12.89;77.13
71917;BME280;59793;46.506;6.674;2023-08-07T03:05:07;97524.41;;;12.85;77.13
71917;BME280;59793;46.506;6.674;2023-08-07T03:07:33;97551.16;;;12.99;77.21
71917;BME280;59793;46.506;6.674;2023-08-07T03:09:58;97525.16;;;12.85;77.36
71917;BME280;59793;46.506;6.674;2023-08-07T03:12:23;97548.50;;;13.15;76.54
71917;BME280;59793;46.506;6.674;2023-08-07T03:14:49;97551.84;;;13.12;76.87
71917;BME280;59793;46.506;6.674;2023-08-07T03:17:14;97531.38;;;12.93;76.57
71917;BME280;59793;46.506;6.674;2023-08-07T03:19:42;97536.41;;;12.98;76.33
71917;BME280;59793;46.506;6.674;2023-08-07T03:22:08;97502.03;;;12.82;76.91
71917;BME280;59793;46.506;6.674;2023-08-07T03:24:33;97521.59;;;12.78;77.78
71917;BME280;59793;46.506;6.674;2023-08-07T03:26:58;97514.28;;;12.55;78.70
71917;BME280;59793;46.506;6.674;2023-08-07T03:29:23;97514.53;;;12.50;78.78
71917;BME280;59793;46.506;6.674;2023-08-07T03:31:49;97545.97;;;12.71;79.59
71917;BME280;59793;46.506;6.674;2023-08-07T03:34:14;97483.00;;;12.41;79.20
71917;BME280;59793;46.506;6.674;2023-08-07T03:36:39;97536.41;;;12.82;79.07
71917;BME280;59793;46.506;6.674;2023-08-07T03:39:05;97538.28;;;12.98;77.97
71917;BME280;59793;46.506;6.674;2023-08-07T03:41:30;97488.19;;;12.70;76.85
71917;BME280;59793;46.506;6.674;2023-08-07T03:43:55;97524.47;;;12.88;74.49
71917;BME280;59793;46.506;6.674;2023-08-07T03:46:21;97512.69;;;13.02;74.60
71917;BME280;59793;46.506;6.674;2023-08-07T03:48:46;97525.06;;;12.98;75.26
71917;BME280;59793;46.506;6.674;2023-08-07T03:51:11;97497.72;;;12.74;76.05
71917;BME280;59793;46.506;6.674;2023-08-07T03:53:37;97542.19;;;13.04;76.47
71917;BME280;59793;46.506;6.674;2023-08-07T03:56:03;97518.94;;;12.78;75.83
71917;BME280;59793;46.506;6.674;2023-08-07T03:58:28;97508.81;;;12.64;75.85
71917;BME280;59793;46.506;6.674;2023-08-07T04:00:53;97481.81;;;12.55;75.66
71917;BME280;59793;46.506;6.674;2023-08-07T04:03:20;97530.38;;;12.98;75.91
71917;BME280;59793;46.506;6.674;2023-08-07T04:05:45;97519.50;;;13.03;75.88
71917;BME280;59793;46.506;6.674;2023-08-07T04:08:10;97505.03;;;12.81;76.05
71917;BME280;59793;46.506;6.674;2023-08-07T04:10:36;97531.72;;;12.91;76.49
71917;BME280;59793;46.506;6.674;2023-08-07T04:13:01;97530.13;;;12.71;77.63
71917;BME280;59793;46.506;6.674;2023-08-07T04:15:26;97529.03;;;12.72;77.70
71917;BME280;59793;46.506;6.674;2023-08-07T04:17:52;97530.97;;;12.43;79.32
71917;BME280;59793;46.506;6.674;2023-08-07T04:20:17;97527.25;;;12.44;79.22
71917;BME280;59793;46.506;6.674;2023-08-07T04:22:42;97509.66;;;12.20;78.71
71917;BME280;59793;46.506;6.674;2023-08-07T04:25:10;97551.34;;;12.27;80.39
71917;BME280;59793;46.506;6.674;2023-08-07T04:27:35;97522.41;;;12.03;80.19
71917;BME280;59793;46.506;6.674;2023-08-07T04:30:00;97523.94;;;12.04;80.81
71917;BME280;59793;46.506;6.674;2023-08-07T04:32:26;97549.19;;;12.33;79.18
71917;BME280;59793;46.506;6.674;2023-08-07T04:34:51;97517.22;;;12.22;78.88
71917;BME280;59793;46.506;6.674;2023-08-07T04:37:16;97509.66;;;12.36;77.74
71917;BME280;59793;46.506;6.674;2023-08-07T04:39:42;97567.56;;;12.73;77.14
71917;BME280;59793;46.506;6.674;2023-08-07T04:42:07;97535.56;;;12.31;79.29
71917;BME280;59793;46.506;6.674;2023-08-07T04:44:32;97569.06;;;12.42;80.05
71917;BME280;59793;46.506;6.674;2023-08-07T04:46:58;97533.66;;;12.00;81.49
71917;BME280;59793;46.506;6.674;2023-08-07T04:49:23;97518.53;;;11.84;82.37
71917;BME280;59793;46.506;6.674;2023-08-07T04:51:48;97529.88;;;11.85;82.23
71917;BME280;59793;46.506;6.674;2023-08-07T04:54:13;97507.31;;;11.75;82.24
71917;BME280;59793;46.506;6.674;2023-08-07T04:56:39;97468.75;;;11.42;82.26
71917;BME280;59793;46.506;6.674;2023-08-07T04:59:05;97494.00;;;11.43;83.17
71917;BME280;59793;46.506;6.674;2023-08-07T05:01:31;97482.94;;;11.38;83.12
71917;BME280;59793;46.506;6.674;2023-08-07T05:03:56;97561.97;;;11.87;83.68
71917;BME280;59793;46.506;6.674;2023-08-07T05:06:22;97523.63;;;11.65;83.80
71917;BME280;59793;46.506;6.674;2023-08-07T05:08:48;97513.53;;;11.55;83.71
71917;BME280;59793;46.506;6.674;2023-08-07T05:11:13;97553.16;;;11.95;83.28
71917;BME280;59793;46.506;6.674;2023-08-07T05:13:39;97526.09;;;11.86;83.05
71917;BME280;59793;46.506;6.674;2023-08-07T05:16:04;97495.19;;;11.86;82.78
71917;BME280;59793;46.506;6.674;2023-08-07T05:18:29;97539.84;;;12.35;82.57
71917;BME280;59793;46.506;6.674;2023-08-07T05:20:55;97528.25;;;12.40;81.58
71917;BME280;59793;46.506;6.674;2023-08-07T05:23:20;97518.69;;;12.35;81.13
71917;BME280;59793;46.506;6.674;2023-08-07T05:25:46;97542.75;;;12.62;80.96
71917;BME280;59793;46.506;6.674;2023-08-07T05:28:12;97543.59;;;12.66;81.43
71917;BME280;59793;46.506;6.674;2023-08-07T05:30:37;97569.53;;;12.76;81.54
71917;BME280;59793;46.506;6.674;2023-08-07T05:33:02;97556.38;;;12.64;81.41
71917;BME280;59793;46.506;6.674;2023-08-07T05:35:28;97547.00;;;12.51;81.48
71917;BME280;59793;46.506;6.674;2023-08-07T05:37:53;97522.19;;;12.24;82.50
71917;BME280;59793;46.506;6.674;2023-08-07T05:40:18;97511.63;;;12.24;82.52
71917;BME280;59793;46.506;6.674;2023-08-07T05:42:44;97569.84;;;12.75;82.41
71917;BME280;59793;46.506;6.674;2023-08-07T05:45:10;97515.28;;;12.51;82.22
71917;BME280;59793;46.506;6.674;2023-08-07T05:47:35;97533.44;;;12.84;81.62
71917;BME280;59793;46.506;6.674;2023-08-07T05:50:01;97576.41;;;13.28;80.66
71917;BME280;59793;46.506;6.674;2023-08-07T05:52:26;97548.66;;;13.22;80.13
71917;BME280;59793;46.506;6.674;2023-08-07T05:54:52;97541.16;;;13.24;80.00
71917;BME280;59793;46.506;6.674;2023-08-07T05:57:18;97591.72;;;13.54;79.72
71917;BME280;59793;46.506;6.674;2023-08-07T05:59:43;97542.78;;;13.29;79.28
71917;BME280;59793;46.506;6.674;2023-08-07T06:02:08;97594.81;;;13.76;78.82
71917;BME280;59793;46.506;6.674;2023-08-07T06:04:36;97530.41;;;13.33;77.52
71917;BME280;59793;46.506;6.674;2023-08-07T06:07:01;97599.88;;;13.84;78.07
71917;BME280;59793;46.506;6.674;2023-08-07T06:09:27;97599.34;;;13.95;77.75
71917;BME280;59793;46.506;6.674;2023-08-07T06:11:52;97557.38;;;13.77;77.57
71917;BME280;59793;46.506;6.674;2023-08-07T06:14:18;97544.91;;;13.78;77.74
71917;BME280;59793;46.506;6.674;2023-08-07T06:16:43;97576.75;;;14.01;76.71
71917;BME280;59793;46.506;6.674;2023-08-07T06:19:08;97593.34;;;13.98;77.14
71917;BME280;59793;46.506;6.674;2023-08-07T06:21:34;97588.31;;;14.12;74.82
71917;BME280;59793;46.506;6.674;2023-08-07T06:23:59;97613.50;;;14.45;75.07
71917;BME280;59793;46.506;6.674;2023-08-07T06:26:24;97591.59;;;14.48;74.71
71917;BME280;59793;46.506;6.674;2023-08-07T06:28:50;97547.69;;;14.27;74.88
71917;BME280;59793;46.506;6.674;2023-08-07T06:31:16;97596.97;;;14.71;72.66
71917;BME280;59793;46.506;6.674;2023-08-07T06:33:41;97620.88;;;14.97;71.03
71917;BME280;59793;46.506;6.674;2023-08-07T06:36:07;97624.06;;;15.06;71.16
71917;BME280;59793;46.506;6.674;2023-08-07T06:38:33;97607.78;;;15.08;71.28
71917;BME280;59793;46.506;6.674;2023-08-07T06:40:59;97605.19;;;15.12;71.57
71917;BME280;59793;46.506;6.674;2023-08-07T06:43:24;97594.28;;;15.17;72.53
71917;BME280;59793;46.506;6.674;2023-08-07T06:45:51;97574.19;;;15.19;72.44
71917;BME280;59793;46.506;6.674;2023-08-07T06:48:17;97556.75;;;15.18;70.77
71917;BME280;59793;46.506;6.674;2023-08-07T06:50:43;97581.75;;;15.44;67.28
71917;BME280;59793;46.506;6.674;2023-08-07T06:53:09;97583.88;;;15.61;66.66
71917;BME280;59793;46.506;6.674;2023-08-07T06:55:34;97623.97;;;16.09;64.70
71917;BME280;59793;46.506;6.674;2023-08-07T06:58:00;97626.19;;;16.37;62.05
71917;BME280;59793;46.506;6.674;2023-08-07T07:00:25;97629.63;;;16.41;61.50
71917;BME280;59793;46.506;6.674;2023-08-07T07:02:51;97576.31;;;15.93;62.73
71917;BME280;59793;46.506;6.674;2023-08-07T07:05:16;97577.63;;;16.10;62.96
71917;BME280;59793;46.506;6.674;2023-08-07T07:07:42;97577.34;;;16.15;61.97
71917;BME280;59793;46.506;6.674;2023-08-07T07:10:07;97596.97;;;16.41;63.06
71917;BME280;59793;46.506;6.674;2023-08-07T07:12:33;97580.44;;;16.24;62.46
71917;BME280;59793;46.506;6.674;2023-08-07T07:14:58;97582.31;;;16.20;62.91
71917;BME280;59793;46.506;6.674;2023-08-07T07:17:23;97639.75;;;16.66;62.03
71917;BME280;59793;46.506;6.674;2023-08-07T07:19:48;97635.91;;;16.63;62.71
71917;BME280;59793;46.506;6.674;2023-08-07T07:22:14;97602.88;;;16.64;62.93
71917;BME280;59793;46.506;6.674;2023-08-07T07:24:39;97619.41;;;16.84;62.11
71917;BME280;59793;46.506;6.674;2023-08-07T07:27:05;97640.91;;;17.09;61.76
71917;BME280;59793;46.506;6.674;2023-08-07T07:29:30;97635.28;;;17.18;61.69
71917;BME280;59793;46.506;6.674;2023-08-07T07:31:56;97584.47;;;16.86;62.58
71917;BME280;59793;46.506;6.674;2023-08-07T07:34:21;97598.31;;;17.09;61.95
71917;BME280;59793;46.506;6.674;2023-08-07T07:36:47;97621.59;;;17.19;61.42
71917;BME280;59793;46.506;6.674;2023-08-07T07:39:13;97650.28;;;17.44;59.62
71917;BME280;59793;46.506;6.674;2023-08-07T07:41:38;97627.00;;;17.30;59.22
71917;BME280;59793;46.506;6.674;2023-08-07T07:44:04;97652.88;;;17.33;59.83
71917;BME280;59793;46.506;6.674;2023-08-07T07:46:29;97648.91;;;17.09;60.04
71917;BME280;59793;46.506;6.674;2023-08-07T07:48:57;97618.19;;;16.75;59.28
71917;BME280;59793;46.506;6.674;2023-08-07T07:51:22;97621.16;;;16.69;60.28
71917;BME280;59793;46.506;6.674;2023-08-07T07:53:48;97563.72;;;16.61;61.34
71917;BME280;59793;46.506;6.674;2023-08-07T07:56:13;97611.31;;;17.18;59.06
71917;BME280;59793;46.506;6.674;2023-08-07T07:58:38;97608.94;;;17.06;59.57
71917;BME280;59793;46.506;6.674;2023-08-07T08:01:06;97580.72;;;16.94;59.54
71917;BME280;59793;46.506;6.674;2023-08-07T08:03:31;97578.16;;;17.08;59.95
71917;BME280;59793;46.506;6.674;2023-08-07T08:05:57;97570.34;;;17.37;58.77
71917;BME280;59793;46.506;6.674;2023-08-07T08:08:23;97648.38;;;18.07;58.74
71917;BME280;59793;46.506;6.674;2023-08-07T08:10:48;97603.31;;;17.80;58.54
71917;BME280;59793;46.506;6.674;2023-08-07T08:13:14;97638.94;;;18.24;57.79
71917;BME280;59793;46.506;6.674;2023-08-07T08:15:40;97587.31;;;17.77;56.06
71917;BME280;59793;46.506;6.674;2023-08-07T08:18:05;97602.06;;;17.56;57.65
71917;BME280;59793;46.506;6.674;2023-08-07T08:20:30;97626.56;;;17.83;56.54
71917;BME280;59793;46.506;6.674;2023-08-07T08:22:57;97654.06;;;18.05;57.03
71917;BME280;59793;46.506;6.674;2023-08-07T08:25:23;97656.69;;;17.95;56.98
71917;BME280;59793;46.506;6.674;2023-08-07T08:27:48;97630.38;;;17.82;56.72
71917;BME280;59793;46.506;6.674;2023-08-07T08:30:16;97600.31;;;17.89;56.67
71917;BME280;59793;46.506;6.674;2023-08-07T08:32:42;97662.50;;;18.14;56.68
71917;BME280;59793;46.506;6.674;2023-08-07T08:35:08;97628.59;;;18.11;55.97
71917;BME280;59793;46.506;6.674;2023-08-07T08:37:34;97654.56;;;18.29;56.01
71917;BME280;59793;46.506;6.674;2023-08-07T08:40:00;97611.31;;;17.80;56.61
71917;BME280;59793;46.506;6.674;2023-08-07T08:42:26;97593.22;;;17.49;57.18
71917;BME280;59793;46.506;6.674;2023-08-07T08:44:52;97660.16;;;17.99;57.57
71917;BME280;59793;46.506;6.674;2023-08-07T08:47:18;97654.06;;;18.02;57.68
71917;BME280;59793;46.506;6.674;2023-08-07T08:49:47;97596.19;;;17.33;56.72
71917;BME280;59793;46.506;6.674;2023-08-07T08:52:13;97605.06;;;17.55;57.78
71917;BME280;59793;46.506;6.674;2023-08-07T08:54:39;97647.22;;;18.04;56.78
71917;BME280;59793;46.506;6.674;2023-08-07T08:57:06;97605.84;;;17.55;56.80
71917;BME280;59793;46.506;6.674;2023-08-07T08:59:32;97648.97;;;17.75;56.46
71917;BME280;59793;46.506;6.674;2023-08-07T09:01:58;97619.25;;;17.73;55.05
71917;BME280;59793;46.506;6.674;2023-08-07T09:04:23;97625.50;;;17.99;55.47
71917;BME280;59793;46.506;6.674;2023-08-07T09:06:49;97611.00;;;17.96;54.96
71917;BME280;59793;46.506;6.674;2023-08-07T09:09:16;97591.97;;;18.01;55.88
71917;BME280;59793;46.506;6.674;2023-08-07T09:11:44;97584.03;;;18.23;54.35
71917;BME280;59793;46.506;6.674;2023-08-07T09:14:11;97647.00;;;18.52;53.90
71917;BME280;59793;46.506;6.674;2023-08-07T09:16:40;97601.97;;;18.33;53.32
71917;BME280;59793;46.506;6.674;2023-08-07T09:19:06;97636.00;;;18.82;54.77
71917;BME280;59793;46.506;6.674;2023-08-07T09:21:31;97628.69;;;18.61;53.20
71917;BME280;59793;46.506;6.674;2023-08-07T09:23:57;97589.03;;;18.46;53.35
71917;BME280;59793;46.506;6.674;2023-08-07T09:26:23;97644.00;;;18.79;53.13
71917;BME280;59793;46.506;6.674;2023-08-07T09:28:51;97646.69;;;18.90;51.53
71917;BME280;59793;46.506;6.674;2023-08-07T09:31:18;97652.03;;;19.18;51.06
71917;BME280;59793;46.506;6.674;2023-08-07T09:33:47;97644.78;;;19.01;50.87
71917;BME280;59793;46.506;6.674;2023-08-07T09:36:13;97618.06;;;18.83;50.98
71917;BME280;59793;46.506;6.674;2023-08-07T09:38:39;97632.97;;;18.77;51.24
71917;BME280;59793;46.506;6.674;2023-08-07T09:41:04;97653.84;;;18.50;53.07
71917;BME280;59793;46.506;6.674;2023-08-07T09:43:34;97640.44;;;18.21;54.07
71917;BME280;59793;46.506;6.674;2023-08-07T09:46:05;97673.97;;;18.26;55.09
71917;BME280;59793;46.506;6.674;2023-08-07T09:48:30;97650.56;;;17.83;55.86
71917;BME280;59793;46.506;6.674;2023-08-07T09:51:01;97672.63;;;17.80;56.57
71917;BME280;59793;46.506;6.674;2023-08-07T09:53:29;97640.34;;;17.34;57.46
71917;BME280;59793;46.506;6.674;2023-08-07T09:55:55;97650.59;;;17.28;57.95
71917;BME280;59793;46.506;6.674;2023-08-07T09:58:21;97652.63;;;17.49;57.19
71917;BME280;59793;46.506;6.674;2023-08-07T10:00:47;97657.28;;;17.66;56.61
71917;BME280;59793;46.506;6.674;2023-08-07T10:03:13;97664.34;;;17.96;57.08
71917;BME280;59793;46.506;6.674;2023-08-07T10:05:42;97670.53;;;18.22;56.53
71917;BME280;59793;46.506;6.674;2023-08-07T10:08:08;97655.28;;;18.19;54.64
71917;BME280;59793;46.506;6.674;2023-08-07T10:10:34;97623.59;;;18.03;54.18
71917;BME280;59793;46.506;6.674;2023-08-07T10:13:01;97658.41;;;18.38;54.65
71917;BME280;59793;46.506;6.674;2023-08-07T10:15:27;97673.31;;;18.57;54.88
71917;BME280;59793;46.506;6.674;2023-08-07T10:17:52;97640.38;;;18.03;53.40
71917;BME280;59793;46.506;6.674;2023-08-07T10:20:19;97665.13;;;18.04;54.70
71917;BME280;59793;46.506;6.674;2023-08-07T10:22:46;97612.41;;;17.72;52.85
71917;BME280;59793;46.506;6.674;2023-08-07T10:25:11;97642.28;;;18.06;55.29
71917;BME280;59793;46.506;6.674;2023-08-07T10:27:40;97621.03;;;18.35;53.92
71917;BME280;59793;46.506;6.674;2023-08-07T10:30:10;97672.28;;;19.33;52.12
71917;BME280;59793;46.506;6.674;2023-08-07T10:32:41;97630.28;;;19.34;51.62
71917;BME280;59793;46.506;6.674;2023-08-07T10:35:07;97642.47;;;19.49;49.57
71917;BME280;59793;46.506;6.674;2023-08-07T10:37:44;97663.41;;;19.90;47.62
71917;BME280;59793;46.506;6.674;2023-08-07T10:40:11;97663.84;;;19.67;50.71
71917;BME280;59793;46.506;6.674;2023-08-07T10:45:22;97659.25;;;19.71;50.23
71917;BME280;59793;46.506;6.674;2023-08-07T10:48:01;97642.88;;;19.37;50.65
71917;BME280;59793;46.506;6.674;2023-08-07T10:50:29;97593.25;;;19.22;51.69
71917;BME280;59793;46.506;6.674;2023-08-07T10:52:54;97656.53;;;19.89;50.67
71917;BME280;59793;46.506;6.674;2023-08-07T10:55:20;97600.84;;;19.48;51.32
71917;BME280;59793;46.506;6.674;2023-08-07T10:57:46;97648.50;;;19.89;51.21
71917;BME280;59793;46.506;6.674;2023-08-07T11:00:12;97654.94;;;20.06;48.11
71917;BME280;59793;46.506;6.674;2023-08-07T11:02:41;97650.28;;;20.21;48.36
71917;BME280;59793;46.506;6.674;2023-08-07T11:05:07;97662.94;;;20.10;47.12
71917;BME280;59793;46.506;6.674;2023-08-07T11:07:32;97612.13;;;20.06;46.28
71917;BME280;59793;46.506;6.674;2023-08-07T11:09:59;97624.72;;;20.13;43.08
71917;BME280;59793;46.506;6.674;2023-08-07T11:12:28;97598.06;;;19.91;45.54
71917;BME280;59793;46.506;6.674;2023-08-07T11:14:55;97638.09;;;20.13;45.22
71917;BME280;59793;46.506;6.674;2023-08-07T11:17:26;97597.34;;;19.84;45.93
71917;BME280;59793;46.506;6.674;2023-08-07T11:19:53;97641.38;;;20.42;42.97
71917;BME280;59793;46.506;6.674;2023-08-07T11:22:19;97616.03;;;19.87;46.92
71917;BME280;59793;46.506;6.674;2023-08-07T11:24:46;97638.53;;;20.00;47.12
71917;BME280;59793;46.506;6.674;2023-08-07T11:27:11;97605.81;;;20.45;45.90
71917;BME280;59793;46.506;6.674;2023-08-07T11:29:36;97606.56;;;20.52;45.54
71917;BME280;59793;46.506;6.674;2023-08-07T11:32:02;97609.91;;;20.71;44.79
71917;BME280;59793;46.506;6.674;2023-08-07T11:34:28;97618.84;;;20.98;43.40
71917;BME280;59793;46.506;6.674;2023-08-07T11:36:53;97604.38;;;20.92;42.97
71917;BME280;59793;46.506;6.674;2023-08-07T11:39:20;97623.22;;;21.23;40.35
71917;BME280;59793;46.506;6.674;2023-08-07T11:41:46;97606.56;;;21.05;40.44
71917;BME280;59793;46.506;6.674;2023-08-07T11:44:12;97627.28;;;21.45;42.40
71917;BME280;59793;46.506;6.674;2023-08-07T11:46:37;97614.41;;;21.26;42.60
71917;BME280;59793;46.506;6.674;2023-08-07T11:49:03;97622.88;;;21.62;41.33
71917;BME280;59793;46.506;6.674;2023-08-07T11:51:29;97621.91;;;21.45;39.61
71917;BME280;59793;46.506;6.674;2023-08-07T11:53:55;97615.31;;;21.54;39.71
71917;BME280;59793;46.506;6.674;2023-08-07T11:56:24;97642.13;;;21.91;37.46
71917;BME280;59793;46.506;6.674;2023-08-07T11:58:50;97600.31;;;21.60;40.35
71917;BME280;59793;46.506;6.674;2023-08-07T12:01:21;97589.19;;;21.61;40.22
71917;BME280;59793;46.506;6.674;2023-08-07T12:06:30;97593.34;;;21.66;37.68
71917;BME280;59793;46.506;6.674;2023-08-07T12:08:57;97620.69;;;21.54;35.74
71917;BME280;59793;46.506;6.674;2023-08-07T12:11:22;97628.41;;;21.82;35.26
71917;BME280;59793;46.506;6.674;2023-08-07T12:13:48;97564.84;;;21.04;35.36
71917;BME280;59793;46.506;6.674;2023-08-07T12:16:15;97625.97;;;21.95;34.70
71917;BME280;59793;46.506;6.674;2023-08-07T12:18:48;97622.06;;;22.34;34.22
71917;BME280;59793;46.506;6.674;2023-08-07T12:21:19;97568.97;;;21.87;35.77
71917;BME280;59793;46.506;6.674;2023-08-07T12:23:45;97599.84;;;21.99;33.60
71917;BME280;59793;46.506;6.674;2023-08-07T12:26:13;97590.94;;;21.75;34.77
71917;BME280;59793;46.506;6.674;2023-08-07T12:28:38;97585.44;;;21.14;37.18
71917;BME280;59793;46.506;6.674;2023-08-07T12:31:04;97606.88;;;20.65;36.85
71917;BME280;59793;46.506;6.674;2023-08-07T12:33:29;97636.78;;;20.42;40.00
71917;BME280;59793;46.506;6.674;2023-08-07T12:35:55;97628.88;;;20.21;38.54
71917;BME280;59793;46.506;6.674;2023-08-07T12:38:21;97611.69;;;20.22;37.94
71917;BME280;59793;46.506;6.674;2023-08-07T12:40:46;97588.59;;;20.49;38.52
71917;BME280;59793;46.506;6.674;2023-08-07T12:43:12;97563.19;;;20.13;36.36
71917;BME280;59793;46.506;6.674;2023-08-07T12:45:37;97595.44;;;20.58;35.55
71917;BME280;59793;46.506;6.674;2023-08-07T12:48:03;97626.81;;;21.06;35.66
71917;BME280;59793;46.506;6.674;2023-08-07T12:50:29;97626.00;;;20.67;36.37
71917;BME280;59793;46.506;6.674;2023-08-07T12:52:54;97583.47;;;20.06;36.37
71917;BME280;59793;46.506;6.674;2023-08-07T12:55:20;97622.44;;;20.15;36.71
71917;BME280;59793;46.506;6.674;2023-08-07T12:57:45;97608.88;;;20.47;36.84
71917;BME280;59793;46.506;6.674;2023-08-07T13:00:12;97581.47;;;20.84;34.39
71917;BME280;59793;46.506;6.674;2023-08-07T13:02:43;97572.81;;;21.52;34.93
71917;BME280;59793;46.506;6.674;2023-08-07T13:05:09;97567.44;;;21.56;31.97
71917;BME280;59793;46.506;6.674;2023-08-07T13:07:36;97608.47;;;21.83;31.89
71917;BME280;59793;46.506;6.674;2023-08-07T13:10:02;97579.06;;;21.42;32.18
71917;BME280;59793;46.506;6.674;2023-08-07T13:12:27;97571.41;;;21.40;34.96